METAR Data
IDs: Format: Raw Decoded Include TAF

Data at: 0540 UTC 19 Aug 2019

KFSM 190453Z AUTO 08004KT 10SM CLR 26/24 A2995 RMK AO2 SLP134 T02560239
KFSM 190353Z 07005KT 10SM FEW120 27/24 A2994 RMK AO2 SLP133 T02670239
KFSM 190253Z 08006KT 10SM BKN120 27/23 A2992 RMK AO2 SLP126 T02720233 53025
KFSM 190153Z 07006KT 10SM BKN120 27/23 A2988 RMK AO2 SLP113 T02720233
KFSM 190053Z 11004KT 10SM CLR 29/23 A2985 RMK AO2 SLP103 T02940228
KFSM 182353Z 11004KT 10SM CLR 31/23 A2985 RMK AO2 SLP101 60037 T03060233 10328 20233 56016
KFSM 182253Z VRB04KT 10SM CLR 31/24 A2985 RMK AO2 SLP102 T03060239
KFSM 182153Z 16004KT 10SM CLR 28/24 A2986 RMK AO2 SLP106 T02830239
KFSM 182053Z VRB04KT 10SM CLR 27/23 A2990 RMK AO2 SLP117 60037 T02670233 58026
KFSM 181953Z 32006KT 10SM CLR 26/23 A2993 RMK AO2 LTG DSNT E-S RAE32 TSE17 PRESRR SLP130 P0006 T02560233
KFSM 181943Z 00000KT 10SM FEW046 24/23 A2991 RMK AO2 LTG DSNT E-SW RAE32 TSE17 PRESRR P0006 T02440233
KFSM 181923Z 11010G17KT 8SM VCTS -RA SCT049 BKN110 23/23 A2987 RMK AO2 LTG DSNT E-SW TSE17 P0006 T02330233
KFSM 181910Z 12009KT 3SM -TSRA BR BKN042 BKN090 BKN110 23/23 A2990 RMK AO2 LTG DSNT ALQDS PRESFR P0006 T02330233
KFSM 181853Z 04004KT 1 1/4SM R25/4000VP6000FT TSRA BR BKN034 BKN049 OVC065 23/23 A2997 RMK AO2 PK WND 36034/1816 LTG DSNT ALQDS RAB36 TSB31 SLP143 P0031 T02330228
KFSM 181851Z 01006KT 3/4SM R25/4000VP6000FT +TSRA BR BKN032 BKN044 OVC055 23/23 A2997 RMK AO2 PK WND 36034/1816 LTG DSNT ALQDS RAB36 TSB31 P0029
KFSM 181842Z 01016G25KT 1 3/4SM R25/5000VP6000FT +TSRA BR FEW025 BKN044 OVC060 24/23 A2997 RMK AO2 PK WND 36034/1816 LTG DSNT ALQDS RAB36 TSB31 P0003 T02390228
KFSM 181837Z 36022G27KT 8SM -TSRA BKN037 BKN045 OVC055 25/22 A2996 RMK AO2 PK WND 36034/1816 LTG DSNT ALQDS RAB36 TSB31 P0000 T02500217
KFSM 181801Z 36004KT 10SM VCTS FEW080 SCT100 32/25 A2993 RMK AO2 LTG DSNT W-N T03220250
KFSM 181753Z 29003KT 10SM FEW050 FEW080 BKN110 33/25 A2993 RMK AO2 LTG DSNT W-N SLP127 T03280250 10344 20267 58001
KFSM 181653Z 17005KT 10SM BKN095 32/25 A2993 RMK AO2 SLP129 T03170250
KFSM 181553Z 00000KT 10SM SCT028 32/25 A2995 RMK AO2 SLP134 T03170250
KFSM 181453Z 00000KT 10SM SCT028 30/25 A2993 RMK AO2 SLP128 T03000250 51023
KFSM 181353Z 11005KT 10SM CLR 28/25 A2991 RMK AO2 SLP120 T02830250
KFSM 181253Z 02004KT 10SM CLR 27/24 A2991 RMK AO2 SLP120 T02720244
KFSM 181153Z 03004KT 10SM CLR 27/24 A2986 RMK AO2 SLP105 T02670239 10294 20261 53001
KFSM 181053Z 11006KT 10SM CLR 26/23 A2984 RMK AO2 SLP097 T02610233
KFSM 180953Z AUTO 03003KT 10SM CLR 26/23 A2985 RMK AO2 SLP102 T02610233
KFSM 180853Z AUTO 10003KT 10SM CLR 27/23 A2986 RMK AO2 SLP104 T02670233 53002
KFSM 180753Z AUTO 07005KT 10SM CLR 26/23 A2984 RMK AO2 SLP098 T02610233
KFSM 180653Z AUTO 06003KT 10SM CLR 28/23 A2985 RMK AO2 SLP101 T02780228
KFSM 180553Z AUTO 13006KT 10SM CLR 29/23 A2985 RMK AO2 SLP102 T02890228 10344 20289 403560233 50003
KFSM 180453Z AUTO 15005KT 10SM CLR 29/23 A2986 RMK AO2 SLP103 T02940228
KFSM 180353Z AUTO 15004KT 10SM CLR 30/23 A2986 RMK AO2 SLP104 T03000228
KFSM 180253Z 14006KT 10SM CLR 31/22 A2984 RMK AO2 SLP099 T03060217 53014
KFSM 180153Z 16008KT 10SM CLR 32/21 A2981 RMK AO2 SLP089 T03220211
KFSM 180053Z 16007KT 10SM CLR 33/21 A2980 RMK AO2 SLP085 T03330211
KFSM 172353Z 16009KT 10SM CLR 34/21 A2980 RMK AO2 SLP085 T03440211 10356 20333 56009
KFSM 172253Z 06010KT 10SM FEW085 34/24 A2981 RMK AO2 SLP088 T03440244
KFSM 172153Z 08011KT 10SM CLR 35/25 A2981 RMK AO2 SLP088 T03500250
KFSM 172053Z 04013KT 10SM FEW070 35/24 A2983 RMK AO2 SLP094 T03500244 56025
KFSM 171953Z 06011KT 10SM SCT060 34/24 A2986 RMK AO2 SLP104 T03390244
KFSM 171853Z 07009G14KT 10SM SCT060 34/24 A2987 RMK AO2 SLP108 T03440239
KFSM 171753Z VRB04KT 10SM SCT050 SCT060 34/24 A2990 RMK AO2 SLP119 T03440239 10350 20239 58003